createdAt,value
2018-12-27T00:01:19.391Z,958.82
2018-12-27T00:03:45.708Z,958.84
2018-12-27T00:06:11.988Z,958.87
2018-12-27T00:08:38.261Z,958.85
2018-12-27T00:11:04.681Z,958.86
2018-12-27T00:13:30.934Z,958.96
2018-12-27T00:15:57.244Z,958.93
2018-12-27T00:18:23.577Z,958.87
2018-12-27T00:20:49.875Z,958.82
2018-12-27T00:23:16.165Z,958.86
2018-12-27T00:25:42.456Z,958.86
2018-12-27T00:28:08.758Z,958.87
2018-12-27T00:30:35.064Z,958.88
2018-12-27T00:33:03.230Z,958.98
2018-12-27T00:35:27.643Z,958.94
2018-12-27T00:37:53.972Z,958.99
2018-12-27T00:40:20.293Z,958.87
2018-12-27T00:42:46.601Z,958.87
2018-12-27T00:45:12.874Z,958.90
2018-12-27T00:47:39.453Z,958.95
2018-12-27T00:50:05.738Z,958.86
2018-12-27T00:52:32.102Z,958.90
2018-12-27T00:54:58.373Z,958.92
2018-12-27T00:57:24.664Z,958.94
2018-12-27T00:59:50.963Z,958.88
2018-12-27T01:02:17.273Z,958.92
2018-12-27T01:04:43.555Z,958.86
2018-12-27T01:07:09.847Z,958.92
2018-12-27T01:09:36.150Z,958.90
2018-12-27T01:12:02.430Z,958.87
2018-12-27T01:14:28.728Z,958.94
2018-12-27T01:16:55.024Z,958.95
2018-12-27T01:19:21.318Z,958.89
2018-12-27T01:21:47.624Z,958.94
2018-12-27T01:24:13.900Z,958.84
2018-12-27T01:26:40.177Z,958.83
2018-12-27T01:29:06.529Z,958.79
2018-12-27T01:31:32.835Z,958.68
2018-12-27T01:33:59.120Z,958.65
2018-12-27T01:36:25.430Z,958.71
2018-12-27T01:38:51.716Z,958.76
2018-12-27T01:41:17.987Z,958.65
2018-12-27T01:43:44.288Z,958.69
2018-12-27T01:46:10.812Z,958.69
2018-12-27T01:48:37.107Z,958.64
2018-12-27T01:51:03.397Z,958.70
2018-12-27T01:53:29.675Z,958.62
2018-12-27T01:55:55.977Z,958.62
2018-12-27T01:58:22.266Z,958.52
2018-12-27T02:00:48.573Z,958.48
2018-12-27T02:03:14.886Z,958.58
2018-12-27T02:05:41.187Z,958.55
2018-12-27T02:08:07.564Z,958.47
2018-12-27T02:10:33.779Z,958.43
2018-12-27T02:13:00.068Z,958.43
2018-12-27T02:15:26.381Z,958.48
2018-12-27T02:17:52.683Z,958.47
2018-12-27T02:20:19.014Z,958.37
2018-12-27T02:22:45.292Z,958.35
2018-12-27T02:25:11.591Z,958.41
2018-12-27T02:27:37.883Z,958.45
2018-12-27T02:30:04.178Z,958.46
2018-12-27T02:32:30.482Z,958.47
2018-12-27T02:34:56.758Z,958.36
2018-12-27T02:37:23.077Z,958.39
2018-12-27T02:39:49.371Z,958.29
2018-12-27T02:42:15.655Z,958.34
2018-12-27T02:44:41.964Z,958.35
2018-12-27T02:47:08.267Z,958.32
2018-12-27T02:49:34.587Z,958.26
2018-12-27T02:52:00.855Z,958.22
2018-12-27T02:54:27.182Z,958.20
2018-12-27T02:56:53.463Z,958.27
2018-12-27T02:59:19.760Z,958.20
2018-12-27T03:01:46.062Z,958.24
2018-12-27T03:04:12.349Z,958.25
2018-12-27T03:06:38.668Z,958.23
2018-12-27T03:09:04.955Z,958.18
2018-12-27T03:11:31.243Z,958.26
2018-12-27T03:13:57.558Z,958.33
2018-12-27T03:16:23.836Z,958.31
2018-12-27T03:18:50.159Z,958.26
2018-12-27T03:21:16.446Z,958.28
2018-12-27T03:23:42.751Z,958.25
2018-12-27T03:26:09.034Z,958.21
2018-12-27T03:28:35.354Z,958.35
2018-12-27T03:31:01.695Z,958.30
2018-12-27T03:33:28.005Z,958.39
2018-12-27T03:35:54.288Z,958.30
2018-12-27T03:38:20.576Z,958.39
2018-12-27T03:40:46.933Z,958.48
2018-12-27T03:43:13.204Z,958.51
2018-12-27T03:45:39.488Z,958.52
2018-12-27T03:48:05.813Z,958.50
2018-12-27T03:50:32.088Z,958.50
2018-12-27T03:52:58.371Z,958.58
2018-12-27T03:55:24.677Z,958.58
2018-12-27T03:57:50.964Z,958.59
2018-12-27T04:00:17.301Z,958.52
2018-12-27T04:02:43.625Z,958.70
2018-12-27T04:05:09.911Z,958.64
2018-12-27T04:07:36.221Z,958.71
2018-12-27T04:10:02.513Z,958.78
2018-12-27T04:12:28.809Z,958.77
2018-12-27T04:14:55.098Z,958.94
2018-12-27T04:17:21.425Z,958.94
2018-12-27T04:19:47.696Z,958.96
2018-12-27T04:22:14.009Z,958.93
2018-12-27T04:24:40.296Z,959.03
2018-12-27T04:27:06.567Z,959.03
2018-12-27T04:29:32.863Z,959.06
2018-12-27T04:31:59.153Z,959.09
2018-12-27T04:34:25.451Z,959.09
2018-12-27T04:36:51.740Z,959.13
2018-12-27T04:39:18.038Z,959.16
2018-12-27T04:41:44.353Z,959.21
2018-12-27T04:44:10.648Z,959.22
2018-12-27T04:46:36.958Z,959.23
2018-12-27T04:49:03.245Z,959.28
2018-12-27T04:51:29.568Z,959.27
2018-12-27T04:53:55.912Z,959.32
2018-12-27T04:56:22.204Z,959.43
2018-12-27T04:58:48.559Z,959.35
2018-12-27T05:01:14.849Z,959.41
2018-12-27T05:03:41.136Z,959.47
2018-12-27T05:06:07.433Z,959.41
2018-12-27T05:08:33.735Z,959.53
2018-12-27T05:11:00.029Z,959.57
2018-12-27T05:13:26.359Z,959.61
2018-12-27T05:15:52.666Z,959.62
2018-12-27T05:18:18.950Z,959.68
2018-12-27T05:20:45.260Z,959.65
2018-12-27T05:23:11.557Z,959.65
2018-12-27T05:25:37.847Z,959.75
2018-12-27T05:28:04.159Z,959.77
2018-12-27T05:30:30.481Z,959.84
2018-12-27T05:32:56.774Z,959.91
2018-12-27T05:35:23.067Z,959.94
2018-12-27T05:37:49.344Z,959.87
2018-12-27T05:40:15.681Z,959.98
2018-12-27T05:42:41.971Z,960.04
2018-12-27T05:45:08.268Z,959.96
2018-12-27T05:47:34.605Z,960.11
2018-12-27T05:50:00.896Z,960.00
2018-12-27T05:52:27.177Z,960.14
2018-12-27T05:54:53.467Z,960.16
2018-12-27T05:57:19.750Z,960.16
2018-12-27T05:59:46.056Z,960.23
2018-12-27T06:02:12.358Z,960.25
2018-12-27T06:04:38.649Z,960.23
2018-12-27T06:07:04.941Z,960.29
2018-12-27T06:09:31.235Z,960.29
2018-12-27T06:11:57.564Z,960.30
2018-12-27T06:14:23.866Z,960.34
2018-12-27T06:16:52.788Z,960.34
2018-12-27T06:19:19.091Z,960.36
2018-12-27T06:21:45.378Z,960.36
2018-12-27T06:24:11.708Z,960.40
2018-12-27T06:26:37.996Z,960.42
2018-12-27T06:29:04.306Z,960.36
2018-12-27T06:31:30.623Z,960.37
2018-12-27T06:33:56.900Z,960.37
2018-12-27T06:36:23.224Z,960.34
2018-12-27T06:38:49.501Z,960.37
2018-12-27T06:41:15.793Z,960.39
2018-12-27T06:43:42.076Z,960.36
2018-12-27T06:46:08.389Z,960.45
2018-12-27T06:48:34.691Z,960.46
2018-12-27T06:51:00.988Z,960.44
2018-12-27T06:53:27.494Z,960.46
2018-12-27T06:55:53.794Z,960.48
2018-12-27T06:58:20.091Z,960.49
2018-12-27T07:00:46.402Z,960.48
2018-12-27T07:03:12.649Z,960.53
2018-12-27T07:05:38.977Z,960.53
2018-12-27T07:08:05.233Z,960.53
2018-12-27T07:10:31.541Z,960.59
2018-12-27T07:12:57.867Z,960.58
2018-12-27T07:15:24.164Z,960.51
2018-12-27T07:17:50.462Z,960.64
2018-12-27T07:20:16.779Z,960.62
2018-12-27T07:22:43.046Z,960.69
2018-12-27T07:25:09.339Z,960.66
2018-12-27T07:27:35.639Z,960.70
2018-12-27T07:30:01.944Z,960.73
2018-12-27T07:32:28.244Z,960.73
2018-12-27T07:34:56.644Z,960.71
2018-12-27T07:37:20.804Z,960.74
2018-12-27T07:39:47.129Z,960.69
2018-12-27T07:42:13.427Z,960.77
2018-12-27T07:44:39.753Z,960.75
2018-12-27T07:47:06.070Z,960.75
2018-12-27T07:49:32.379Z,960.78
2018-12-27T07:51:58.676Z,960.79
2018-12-27T07:54:24.983Z,960.84
2018-12-27T07:56:51.261Z,960.84
2018-12-27T07:59:17.583Z,960.76
2018-12-27T08:01:43.859Z,960.73
2018-12-27T08:04:10.173Z,960.81
2018-12-27T08:06:36.459Z,960.84
2018-12-27T08:09:02.750Z,960.84
2018-12-27T08:11:29.041Z,960.94
2018-12-27T08:13:55.366Z,960.92
2018-12-27T08:16:21.776Z,960.93
2018-12-27T08:18:48.122Z,960.96
2018-12-27T08:21:14.404Z,960.94
2018-12-27T08:23:40.715Z,961.06
2018-12-27T08:26:07.138Z,961.01
2018-12-27T08:28:33.415Z,961.00
2018-12-27T08:30:59.731Z,961.05
2018-12-27T08:33:26.010Z,961.06
2018-12-27T08:35:52.327Z,961.06
2018-12-27T08:38:18.645Z,961.06
2018-12-27T08:40:44.945Z,961.08
2018-12-27T08:43:11.240Z,961.04
2018-12-27T08:45:37.553Z,960.93
2018-12-27T08:48:03.851Z,961.08
2018-12-27T08:50:30.140Z,961.10
2018-12-27T08:52:56.462Z,961.12
2018-12-27T08:55:22.755Z,961.09
2018-12-27T08:57:49.051Z,961.09
2018-12-27T09:00:15.334Z,961.00
2018-12-27T09:02:41.647Z,961.00
2018-12-27T09:05:07.970Z,960.98
2018-12-27T09:07:34.270Z,961.01
2018-12-27T09:10:00.570Z,960.96
2018-12-27T09:12:26.891Z,960.97
2018-12-27T09:14:53.175Z,960.88
2018-12-27T09:17:19.445Z,960.92
2018-12-27T09:19:45.733Z,960.90
2018-12-27T09:22:12.028Z,960.85
2018-12-27T09:24:38.353Z,960.86
2018-12-27T09:27:04.655Z,960.88
2018-12-27T09:29:30.972Z,960.95
2018-12-27T09:31:57.288Z,960.93
2018-12-27T09:34:23.579Z,960.92
2018-12-27T09:36:50.459Z,960.85
2018-12-27T09:39:16.179Z,960.95
2018-12-27T09:41:42.538Z,960.90
2018-12-27T09:44:08.836Z,960.80
2018-12-27T09:46:35.116Z,960.66
2018-12-27T09:49:01.421Z,960.78
2018-12-27T09:51:27.696Z,960.81
2018-12-27T09:53:53.990Z,960.82
2018-12-27T09:56:20.353Z,960.80
2018-12-27T09:58:46.624Z,960.80
2018-12-27T10:01:12.917Z,960.77
2018-12-27T10:03:39.214Z,960.71
2018-12-27T10:06:05.510Z,960.66
2018-12-27T10:08:32.085Z,960.70
2018-12-27T10:10:58.358Z,960.64
2018-12-27T10:13:24.653Z,960.64
2018-12-27T10:15:50.974Z,960.55
2018-12-27T10:18:17.257Z,960.60
2018-12-27T10:20:43.546Z,960.50
2018-12-27T10:23:09.835Z,960.56
2018-12-27T10:25:36.149Z,960.32
2018-12-27T10:28:02.453Z,960.42
2018-12-27T10:30:28.749Z,960.45
2018-12-27T10:32:55.036Z,960.38
2018-12-27T10:35:21.339Z,960.29
2018-12-27T10:37:47.938Z,960.31
2018-12-27T10:40:14.226Z,960.25
2018-12-27T10:42:40.539Z,960.19
2018-12-27T10:45:06.828Z,960.13
2018-12-27T10:47:33.118Z,960.17
2018-12-27T10:49:59.434Z,960.06
2018-12-27T10:52:25.704Z,960.09
2018-12-27T10:54:52.012Z,960.11
2018-12-27T10:57:18.309Z,960.02
2018-12-27T10:59:44.631Z,960.05
2018-12-27T11:02:10.915Z,960.05
2018-12-27T11:04:37.239Z,959.98
2018-12-27T11:07:03.534Z,960.00
2018-12-27T11:09:29.974Z,959.98
2018-12-27T11:11:56.257Z,959.94
2018-12-27T11:14:22.553Z,959.90
2018-12-27T11:16:48.849Z,959.87
2018-12-27T11:19:15.143Z,959.87
2018-12-27T11:21:41.433Z,959.92
2018-12-27T11:24:07.759Z,959.91
2018-12-27T11:26:34.040Z,959.89
2018-12-27T11:29:00.388Z,959.94
2018-12-27T11:31:26.712Z,959.98
2018-12-27T11:33:53.126Z,959.99
2018-12-27T11:36:19.407Z,959.98
2018-12-27T11:38:45.677Z,960.03
2018-12-27T11:41:11.953Z,959.99
2018-12-27T11:43:38.286Z,960.02
2018-12-27T11:46:04.549Z,960.00
2018-12-27T11:48:30.879Z,960.02
2018-12-27T11:50:57.653Z,960.10
2018-12-27T11:53:23.939Z,960.13
2018-12-27T11:55:50.231Z,960.06
2018-12-27T11:58:16.529Z,960.05
2018-12-27T12:00:42.850Z,960.06
2018-12-27T12:03:09.149Z,960.03
2018-12-27T12:05:35.473Z,959.97
2018-12-27T12:08:01.790Z,960.09
2018-12-27T12:10:28.071Z,959.96
2018-12-27T12:12:54.402Z,960.10
2018-12-27T12:15:20.778Z,960.07
2018-12-27T12:17:47.113Z,960.08
2018-12-27T12:20:13.435Z,960.19
2018-12-27T12:22:39.804Z,960.11
2018-12-27T12:25:06.087Z,960.05
2018-12-27T12:27:32.419Z,960.02
2018-12-27T12:29:58.692Z,960.07
2018-12-27T12:32:24.977Z,960.09
2018-12-27T12:34:51.290Z,960.10
2018-12-27T12:37:17.604Z,960.14
2018-12-27T12:39:43.894Z,960.10
2018-12-27T12:42:10.218Z,960.08
2018-12-27T12:44:36.547Z,960.15
2018-12-27T12:47:02.849Z,960.12
2018-12-27T12:49:29.131Z,960.21
2018-12-27T12:51:55.472Z,960.24
2018-12-27T12:54:21.792Z,960.20
2018-12-27T12:56:48.119Z,960.21
2018-12-27T12:59:14.376Z,960.09
2018-12-27T13:01:40.653Z,960.22
2018-12-27T13:04:06.992Z,960.24
2018-12-27T13:06:33.247Z,960.22
2018-12-27T13:08:59.542Z,960.20
2018-12-27T13:11:25.830Z,960.23
2018-12-27T13:13:52.158Z,960.20
2018-12-27T13:16:18.454Z,960.35
2018-12-27T13:18:47.494Z,960.33
2018-12-27T13:21:11.054Z,960.33
2018-12-27T13:23:37.361Z,960.31
2018-12-27T13:26:03.640Z,960.30
2018-12-27T13:28:29.919Z,960.31
2018-12-27T13:30:56.227Z,960.26
2018-12-27T13:33:22.529Z,960.31
2018-12-27T13:35:48.839Z,960.27
2018-12-27T13:38:15.130Z,960.28
2018-12-27T13:40:41.420Z,960.28
2018-12-27T13:43:07.703Z,960.29
2018-12-27T13:45:34.018Z,960.25
2018-12-27T13:48:00.316Z,960.33
2018-12-27T13:50:26.624Z,960.42
2018-12-27T13:52:52.936Z,960.36
2018-12-27T13:55:19.226Z,960.32
2018-12-27T13:57:45.506Z,960.36
2018-12-27T14:00:11.866Z,960.40
2018-12-27T14:02:38.128Z,960.35
2018-12-27T14:05:04.420Z,960.38
2018-12-27T14:07:30.706Z,960.35
2018-12-27T14:09:57.019Z,960.32
2018-12-27T14:12:23.397Z,960.31
2018-12-27T14:14:49.634Z,960.30
2018-12-27T14:17:15.924Z,960.34
2018-12-27T14:19:42.209Z,960.33
2018-12-27T14:22:08.552Z,960.36
2018-12-27T14:24:34.845Z,960.38
2018-12-27T14:27:01.385Z,960.35
2018-12-27T14:29:27.429Z,960.36
2018-12-27T14:31:53.731Z,960.39
2018-12-27T14:34:20.055Z,960.41
2018-12-27T14:36:46.325Z,960.38
2018-12-27T14:39:12.656Z,960.38
2018-12-27T14:41:38.924Z,960.43
2018-12-27T14:44:05.492Z,960.42
2018-12-27T14:46:31.699Z,960.48
2018-12-27T14:48:57.995Z,960.46
2018-12-27T14:51:24.290Z,960.46
2018-12-27T14:53:50.587Z,960.49
2018-12-27T14:56:16.906Z,960.46
2018-12-27T14:58:43.200Z,960.47
2018-12-27T15:01:09.481Z,960.45
2018-12-27T15:03:35.770Z,960.44
2018-12-27T15:06:02.045Z,960.45
2018-12-27T15:08:28.343Z,960.52
2018-12-27T15:10:54.651Z,960.56
2018-12-27T15:13:20.967Z,960.48
2018-12-27T15:15:47.267Z,960.38
2018-12-27T15:18:13.541Z,960.41
2018-12-27T15:20:39.875Z,960.53
2018-12-27T15:23:06.162Z,960.52
2018-12-27T15:25:32.449Z,960.55
2018-12-27T15:27:58.765Z,960.59
2018-12-27T15:30:25.104Z,960.58
2018-12-27T15:32:51.386Z,960.59
2018-12-27T15:35:17.698Z,960.51
2018-12-27T15:37:43.975Z,960.59
2018-12-27T15:40:10.297Z,960.63
2018-12-27T15:42:36.637Z,960.66
2018-12-27T15:45:02.906Z,960.68
2018-12-27T15:47:29.184Z,960.65
2018-12-27T15:49:55.465Z,960.57
2018-12-27T15:52:21.797Z,960.58
2018-12-27T15:54:48.077Z,960.52
2018-12-27T15:57:14.395Z,960.60
2018-12-27T15:59:40.689Z,960.61
2018-12-27T16:02:06.992Z,960.57
2018-12-27T16:04:33.279Z,960.63
2018-12-27T16:07:02.040Z,960.64
2018-12-27T16:09:26.125Z,960.69
2018-12-27T16:11:52.441Z,960.65
2018-12-27T16:14:19.106Z,960.65
2018-12-27T16:16:45.391Z,960.67
2018-12-27T16:19:11.678Z,960.77
2018-12-27T16:21:37.976Z,960.82
2018-12-27T16:24:04.287Z,960.82
2018-12-27T16:26:30.580Z,960.84
2018-12-27T16:28:56.866Z,960.85
2018-12-27T16:31:23.214Z,960.80
2018-12-27T16:33:49.493Z,960.74
2018-12-27T16:36:15.805Z,960.83
2018-12-27T16:38:42.103Z,960.86
2018-12-27T16:41:08.359Z,960.87
2018-12-27T16:43:34.710Z,960.86
2018-12-27T16:46:00.992Z,960.88
2018-12-27T16:48:27.394Z,960.89
2018-12-27T16:50:53.662Z,960.86
2018-12-27T16:53:19.933Z,960.89
2018-12-27T16:55:46.288Z,960.83
2018-12-27T16:58:12.545Z,960.83
2018-12-27T17:00:38.830Z,960.86
2018-12-27T17:03:05.128Z,960.87
2018-12-27T17:05:31.403Z,960.79
2018-12-27T17:07:57.716Z,960.82
2018-12-27T17:11:22.689Z,960.87
2018-12-27T17:13:00.999Z,960.96
2018-12-27T17:15:27.278Z,960.97
2018-12-27T17:17:53.557Z,960.89
2018-12-27T17:20:20.109Z,960.85
2018-12-27T17:22:49.961Z,960.93
2018-12-27T17:25:16.196Z,960.91
2018-12-27T17:27:42.662Z,960.92
2018-12-27T17:30:24.216Z,960.92
2018-12-27T17:32:50.502Z,960.77
2018-12-27T17:35:16.793Z,960.78
2018-12-27T17:37:51.068Z,960.81
2018-12-27T17:40:17.401Z,960.89
2018-12-27T17:42:43.781Z,960.85
2018-12-27T17:45:09.999Z,960.82
2018-12-27T17:47:36.292Z,960.80
2018-12-27T17:50:02.583Z,960.82
2018-12-27T17:52:30.349Z,960.81
2018-12-27T17:54:55.186Z,960.84
2018-12-27T17:57:21.478Z,960.76
2018-12-27T17:59:47.775Z,960.71
2018-12-27T18:02:14.127Z,960.94
2018-12-27T18:04:40.403Z,960.90
2018-12-27T18:07:06.703Z,960.89
2018-12-27T18:09:32.983Z,960.88
2018-12-27T18:11:59.285Z,960.85
2018-12-27T18:14:25.573Z,960.87
2018-12-27T18:16:51.916Z,960.78
2018-12-27T18:19:18.216Z,960.81
2018-12-27T18:21:44.501Z,960.78
2018-12-27T18:24:10.975Z,960.83
2018-12-27T18:26:37.239Z,960.82
2018-12-27T18:29:03.519Z,960.86
2018-12-27T18:31:29.812Z,960.86
2018-12-27T18:33:56.102Z,960.84
2018-12-27T18:36:22.394Z,960.90
2018-12-27T18:38:48.673Z,960.87
2018-12-27T18:41:15.013Z,960.94
2018-12-27T18:43:41.288Z,960.99
2018-12-27T18:46:07.574Z,960.95
2018-12-27T18:48:33.885Z,960.94
2018-12-27T18:51:00.159Z,960.92
2018-12-27T18:53:26.477Z,960.86
2018-12-27T18:55:52.769Z,960.86
2018-12-27T18:58:19.054Z,960.83
2018-12-27T19:00:45.391Z,960.84
2018-12-27T19:03:11.682Z,960.80
2018-12-27T19:05:37.995Z,960.86
2018-12-27T19:08:04.591Z,960.82
2018-12-27T19:10:30.903Z,960.80
2018-12-27T19:12:57.193Z,960.81
2018-12-27T19:15:25.836Z,960.87
2018-12-27T19:17:52.165Z,960.82
2018-12-27T19:20:18.470Z,960.84
2018-12-27T19:22:44.752Z,960.76
2018-12-27T19:25:11.055Z,960.84
2018-12-27T19:27:37.388Z,960.79
2018-12-27T19:30:03.686Z,960.88
2018-12-27T19:32:30.010Z,960.83
2018-12-27T19:34:56.313Z,960.76
2018-12-27T19:37:22.937Z,960.80
2018-12-27T19:39:49.212Z,960.85
2018-12-27T19:42:15.507Z,960.82
2018-12-27T19:44:41.812Z,960.76
2018-12-27T19:47:08.100Z,960.69
2018-12-27T19:49:34.390Z,960.83
2018-12-27T19:52:00.679Z,960.79
2018-12-27T19:54:31.881Z,960.72
2018-12-27T19:56:53.594Z,960.77
2018-12-27T19:59:19.903Z,960.72
2018-12-27T20:01:46.190Z,960.73
2018-12-27T20:04:12.495Z,960.75
2018-12-27T20:06:39.140Z,960.74
2018-12-27T20:09:05.456Z,960.79
2018-12-27T20:11:31.726Z,960.77
2018-12-27T20:13:58.023Z,960.79
2018-12-27T20:16:24.397Z,960.75
2018-12-27T20:21:35.971Z,960.76
2018-12-27T20:24:02.321Z,960.77
2018-12-27T20:26:28.617Z,960.80
2018-12-27T20:28:54.952Z,960.71
2018-12-27T20:31:21.256Z,960.64
2018-12-27T20:33:47.539Z,960.58
2018-12-27T20:36:13.842Z,960.70
2018-12-27T20:38:40.110Z,960.73
2018-12-27T20:41:06.415Z,960.70
2018-12-27T20:43:32.692Z,960.67
2018-12-27T20:45:59.018Z,960.68
2018-12-27T20:48:25.320Z,960.62
2018-12-27T20:50:51.619Z,960.59
2018-12-27T20:53:17.956Z,960.57
2018-12-27T20:55:44.261Z,960.55
2018-12-27T20:58:10.745Z,960.54
2018-12-27T21:00:37.092Z,960.52
2018-12-27T21:03:03.414Z,960.57
2018-12-27T21:05:29.693Z,960.59
2018-12-27T21:07:55.971Z,960.59
2018-12-27T21:10:22.261Z,960.52
2018-12-27T21:12:48.603Z,960.50
2018-12-27T21:15:14.843Z,960.49
2018-12-27T21:17:41.193Z,960.48
2018-12-27T21:20:07.439Z,960.49
2018-12-27T21:22:33.780Z,960.45
2018-12-27T21:25:00.219Z,960.45
2018-12-27T21:27:26.499Z,960.41
2018-12-27T21:29:52.776Z,960.40
2018-12-27T21:32:19.076Z,960.34
2018-12-27T21:34:45.357Z,960.25
2018-12-27T21:37:11.633Z,960.34
2018-12-27T21:39:37.963Z,960.25
2018-12-27T21:42:04.254Z,960.16
2018-12-27T21:44:30.547Z,960.21
2018-12-27T21:46:56.858Z,960.18
2018-12-27T21:49:23.138Z,960.21
2018-12-27T21:51:49.466Z,960.15
2018-12-27T21:54:15.791Z,960.18
2018-12-27T21:56:42.039Z,960.03
2018-12-27T21:59:08.311Z,960.11
2018-12-27T22:01:34.595Z,960.11
2018-12-27T22:04:00.876Z,960.08
2018-12-27T22:06:27.184Z,960.05
2018-12-27T22:08:53.606Z,960.03
2018-12-27T22:11:19.922Z,960.04
2018-12-27T22:13:46.291Z,960.05
2018-12-27T22:16:12.529Z,960.05
2018-12-27T22:18:38.827Z,960.03
2018-12-27T22:21:05.137Z,959.96
2018-12-27T22:23:31.612Z,959.99
2018-12-27T22:25:57.848Z,959.96
2018-12-27T22:28:24.135Z,959.94
2018-12-27T22:30:50.426Z,959.83
2018-12-27T22:33:16.728Z,959.87
2018-12-27T22:35:43.017Z,959.84
2018-12-27T22:38:09.319Z,959.91
2018-12-27T22:40:35.626Z,959.84
2018-12-27T22:43:01.914Z,959.82
2018-12-27T22:45:30.902Z,959.85
2018-12-27T22:47:57.179Z,959.84
2018-12-27T22:50:23.501Z,959.83
2018-12-27T22:52:49.780Z,959.77
2018-12-27T22:55:16.069Z,959.80
2018-12-27T22:57:42.355Z,959.76
2018-12-27T23:00:08.642Z,959.76
2018-12-27T23:02:34.961Z,959.80
2018-12-27T23:05:01.253Z,959.84
2018-12-27T23:07:28.064Z,959.82
2018-12-27T23:09:54.412Z,959.81
2018-12-27T23:12:20.668Z,959.80
2018-12-27T23:14:46.956Z,959.82
2018-12-27T23:17:13.233Z,959.84
2018-12-27T23:19:39.578Z,959.89
2018-12-27T23:22:05.949Z,959.88
2018-12-27T23:24:32.225Z,959.81
2018-12-27T23:26:58.508Z,959.81
2018-12-27T23:29:24.814Z,959.79
2018-12-27T23:31:51.115Z,959.73
2018-12-27T23:34:17.424Z,959.76
2018-12-27T23:36:43.725Z,959.74
2018-12-27T23:39:10.015Z,959.50
2018-12-27T23:41:36.314Z,959.71
2018-12-27T23:44:02.605Z,959.71
2018-12-27T23:46:28.918Z,959.68
2018-12-27T23:48:55.190Z,959.73
2018-12-27T23:51:21.477Z,959.68
2018-12-27T23:53:47.770Z,959.73
2018-12-27T23:56:14.051Z,959.75
2018-12-27T23:58:40.336Z,959.78
